sensor_id;sensor_type;location;lat;lon;timestamp;P1;durP1;ratioP1;P2;durP2;ratioP2
10009;SDS011;5044;48.652;9.250;2023-06-22T00:00:46;5.88;;;4.70;;
10009;SDS011;5044;48.652;9.250;2023-06-22T00:03:13;7.38;;;5.72;;
10009;SDS011;5044;48.652;9.250;2023-06-22T00:05:40;7.97;;;5.93;;
10009;SDS011;5044;48.652;9.250;2023-06-22T00:08:07;6.65;;;5.75;;
10009;SDS011;5044;48.652;9.250;2023-06-22T00:10:35;6.03;;;3.97;;
10009;SDS011;5044;48.652;9.250;2023-06-22T00:13:01;8.02;;;5.18;;
10009;SDS011;5044;48.652;9.250;2023-06-22T00:15:28;11.50;;;5.72;;
10009;SDS011;5044;48.652;9.250;2023-06-22T00:17:55;10.18;;;5.10;;
10009;SDS011;5044;48.652;9.250;2023-06-22T00:20:24;5.57;;;4.30;;
10009;SDS011;5044;48.652;9.250;2023-06-22T00:22:53;6.65;;;5.00;;
10009;SDS011;5044;48.652;9.250;2023-06-22T00:25:20;7.70;;;4.22;;
10009;SDS011;5044;48.652;9.250;2023-06-22T00:27:48;5.82;;;4.45;;
10009;SDS011;5044;48.652;9.250;2023-06-22T00:30:15;5.22;;;4.35;;
10009;SDS011;5044;48.652;9.250;2023-06-22T00:32:42;6.95;;;4.63;;
10009;SDS011;5044;48.652;9.250;2023-06-22T00:35:10;7.18;;;4.85;;
10009;SDS011;5044;48.652;9.250;2023-06-22T00:37:37;6.97;;;4.00;;
10009;SDS011;5044;48.652;9.250;2023-06-22T00:40:07;4.88;;;4.05;;
10009;SDS011;5044;48.652;9.250;2023-06-22T00:42:36;6.40;;;3.90;;
10009;SDS011;5044;48.652;9.250;2023-06-22T00:45:05;8.82;;;5.15;;
10009;SDS011;5044;48.652;9.250;2023-06-22T00:47:33;8.85;;;5.90;;
10009;SDS011;5044;48.652;9.250;2023-06-22T00:50:01;9.13;;;5.78;;
10009;SDS011;5044;48.652;9.250;2023-06-22T00:52:29;7.57;;;5.65;;
10009;SDS011;5044;48.652;9.250;2023-06-22T00:54:58;6.15;;;4.35;;
10009;SDS011;5044;48.652;9.250;2023-06-22T00:57:27;9.75;;;5.80;;
10009;SDS011;5044;48.652;9.250;2023-06-22T00:59:54;9.32;;;5.45;;
10009;SDS011;5044;48.652;9.250;2023-06-22T01:02:23;4.68;;;3.83;;
10009;SDS011;5044;48.652;9.250;2023-06-22T01:04:49;20.25;;;6.50;;
10009;SDS011;5044;48.652;9.250;2023-06-22T01:07:17;5.10;;;4.22;;
10009;SDS011;5044;48.652;9.250;2023-06-22T01:10:03;9.55;;;6.53;;
10009;SDS011;5044;48.652;9.250;2023-06-22T01:12:36;11.68;;;5.50;;
10009;SDS011;5044;48.652;9.250;2023-06-22T01:15:08;5.90;;;4.05;;
10009;SDS011;5044;48.652;9.250;2023-06-22T01:20:07;9.40;;;6.10;;
10009;SDS011;5044;48.652;9.250;2023-06-22T01:22:40;8.80;;;6.35;;
10009;SDS011;5044;48.652;9.250;2023-06-22T01:25:19;7.28;;;5.57;;
10009;SDS011;5044;48.652;9.250;2023-06-22T01:27:53;7.53;;;4.50;;
10009;SDS011;5044;48.652;9.250;2023-06-22T01:30:28;7.72;;;5.60;;
10009;SDS011;5044;48.652;9.250;2023-06-22T01:32:59;9.35;;;6.60;;
10009;SDS011;5044;48.652;9.250;2023-06-22T01:35:29;10.82;;;6.30;;
10009;SDS011;5044;48.652;9.250;2023-06-22T01:37:56;5.90;;;4.70;;
10009;SDS011;5044;48.652;9.250;2023-06-22T01:40:23;8.30;;;6.25;;
10009;SDS011;5044;48.652;9.250;2023-06-22T01:42:51;10.25;;;6.53;;
10009;SDS011;5044;48.652;9.250;2023-06-22T01:45:19;10.18;;;6.88;;
10009;SDS011;5044;48.652;9.250;2023-06-22T01:47:47;6.05;;;4.15;;
10009;SDS011;5044;48.652;9.250;2023-06-22T01:50:15;5.10;;;3.75;;
10009;SDS011;5044;48.652;9.250;2023-06-22T01:52:42;4.80;;;4.07;;
10009;SDS011;5044;48.652;9.250;2023-06-22T01:55:08;7.00;;;4.65;;
10009;SDS011;5044;48.652;9.250;2023-06-22T01:57:35;11.18;;;5.93;;
10009;SDS011;5044;48.652;9.250;2023-06-22T02:00:03;10.48;;;5.80;;
10009;SDS011;5044;48.652;9.250;2023-06-22T02:02:33;6.63;;;4.80;;
10009;SDS011;5044;48.652;9.250;2023-06-22T02:05:09;6.85;;;3.58;;
10009;SDS011;5044;48.652;9.250;2023-06-22T02:07:42;7.50;;;5.30;;
10009;SDS011;5044;48.652;9.250;2023-06-22T02:10:15;7.47;;;5.18;;
10009;SDS011;5044;48.652;9.250;2023-06-22T02:12:44;7.32;;;4.78;;
10009;SDS011;5044;48.652;9.250;2023-06-22T02:15:12;7.03;;;5.03;;
10009;SDS011;5044;48.652;9.250;2023-06-22T02:17:39;8.43;;;5.07;;
10009;SDS011;5044;48.652;9.250;2023-06-22T02:20:13;8.32;;;5.30;;
10009;SDS011;5044;48.652;9.250;2023-06-22T02:22:40;10.73;;;5.50;;
10009;SDS011;5044;48.652;9.250;2023-06-22T02:25:07;9.38;;;6.00;;
10009;SDS011;5044;48.652;9.250;2023-06-22T02:27:34;14.48;;;5.45;;
10009;SDS011;5044;48.652;9.250;2023-06-22T02:30:01;10.00;;;5.32;;
10009;SDS011;5044;48.652;9.250;2023-06-22T02:32:28;11.88;;;6.63;;
10009;SDS011;5044;48.652;9.250;2023-06-22T02:34:55;8.82;;;6.20;;
10009;SDS011;5044;48.652;9.250;2023-06-22T02:37:23;7.95;;;5.13;;
10009;SDS011;5044;48.652;9.250;2023-06-22T02:39:50;13.00;;;6.82;;
10009;SDS011;5044;48.652;9.250;2023-06-22T02:42:17;10.15;;;6.75;;
10009;SDS011;5044;48.652;9.250;2023-06-22T02:44:45;10.38;;;6.65;;
10009;SDS011;5044;48.652;9.250;2023-06-22T02:47:12;10.88;;;7.65;;
10009;SDS011;5044;48.652;9.250;2023-06-22T02:49:39;10.90;;;6.90;;
10009;SDS011;5044;48.652;9.250;2023-06-22T02:52:06;8.25;;;5.75;;
10009;SDS011;5044;48.652;9.250;2023-06-22T02:54:35;8.40;;;6.20;;
10009;SDS011;5044;48.652;9.250;2023-06-22T02:57:01;9.10;;;6.22;;
10009;SDS011;5044;48.652;9.250;2023-06-22T02:59:28;9.98;;;6.32;;
10009;SDS011;5044;48.652;9.250;2023-06-22T03:01:55;8.45;;;5.72;;
10009;SDS011;5044;48.652;9.250;2023-06-22T03:04:22;10.93;;;5.47;;
10009;SDS011;5044;48.652;9.250;2023-06-22T03:06:49;7.38;;;5.10;;
10009;SDS011;5044;48.652;9.250;2023-06-22T03:09:16;5.70;;;4.32;;
10009;SDS011;5044;48.652;9.250;2023-06-22T03:11:45;5.15;;;4.07;;
10009;SDS011;5044;48.652;9.250;2023-06-22T03:14:11;12.50;;;4.90;;
10009;SDS011;5044;48.652;9.250;2023-06-22T03:16:38;8.85;;;6.03;;
10009;SDS011;5044;48.652;9.250;2023-06-22T03:19:06;11.00;;;6.13;;
10009;SDS011;5044;48.652;9.250;2023-06-22T03:21:32;5.45;;;4.00;;
10009;SDS011;5044;48.652;9.250;2023-06-22T03:23:59;4.50;;;3.35;;
10009;SDS011;5044;48.652;9.250;2023-06-22T03:26:26;6.75;;;3.97;;
10009;SDS011;5044;48.652;9.250;2023-06-22T03:28:54;5.10;;;3.58;;
10009;SDS011;5044;48.652;9.250;2023-06-22T03:31:21;5.35;;;4.18;;
10009;SDS011;5044;48.652;9.250;2023-06-22T03:33:48;6.50;;;4.28;;
10009;SDS011;5044;48.652;9.250;2023-06-22T03:36:15;9.63;;;4.78;;
10009;SDS011;5044;48.652;9.250;2023-06-22T03:38:43;9.90;;;5.45;;
10009;SDS011;5044;48.652;9.250;2023-06-22T03:41:11;5.63;;;3.80;;
10009;SDS011;5044;48.652;9.250;2023-06-22T03:43:37;5.95;;;3.70;;
10009;SDS011;5044;48.652;9.250;2023-06-22T03:46:06;6.20;;;3.47;;
10009;SDS011;5044;48.652;9.250;2023-06-22T03:48:33;4.63;;;3.47;;
10009;SDS011;5044;48.652;9.250;2023-06-22T03:51:00;7.30;;;4.38;;
10009;SDS011;5044;48.652;9.250;2023-06-22T03:53:28;5.82;;;3.30;;
10009;SDS011;5044;48.652;9.250;2023-06-22T03:55:54;5.55;;;3.83;;
10009;SDS011;5044;48.652;9.250;2023-06-22T03:58:22;6.80;;;4.13;;
10009;SDS011;5044;48.652;9.250;2023-06-22T04:00:49;6.38;;;3.97;;
10009;SDS011;5044;48.652;9.250;2023-06-22T04:03:19;7.32;;;4.60;;
10009;SDS011;5044;48.652;9.250;2023-06-22T04:05:46;7.68;;;4.90;;
10009;SDS011;5044;48.652;9.250;2023-06-22T04:08:13;10.65;;;5.25;;
10009;SDS011;5044;48.652;9.250;2023-06-22T04:10:40;6.00;;;4.63;;
10009;SDS011;5044;48.652;9.250;2023-06-22T04:13:07;7.82;;;5.55;;
10009;SDS011;5044;48.652;9.250;2023-06-22T04:15:34;6.07;;;4.85;;
10009;SDS011;5044;48.652;9.250;2023-06-22T04:18:01;12.35;;;5.40;;
10009;SDS011;5044;48.652;9.250;2023-06-22T04:20:29;8.25;;;5.18;;
10009;SDS011;5044;48.652;9.250;2023-06-22T04:22:56;8.43;;;4.88;;
10009;SDS011;5044;48.652;9.250;2023-06-22T04:25:23;8.52;;;5.38;;
10009;SDS011;5044;48.652;9.250;2023-06-22T04:27:50;7.13;;;5.07;;
10009;SDS011;5044;48.652;9.250;2023-06-22T04:30:17;10.27;;;5.30;;
10009;SDS011;5044;48.652;9.250;2023-06-22T04:32:44;8.93;;;6.32;;
10009;SDS011;5044;48.652;9.250;2023-06-22T04:35:21;9.45;;;6.03;;
10009;SDS011;5044;48.652;9.250;2023-06-22T04:37:49;6.85;;;4.47;;
10009;SDS011;5044;48.652;9.250;2023-06-22T04:40:19;7.90;;;4.32;;
10009;SDS011;5044;48.652;9.250;2023-06-22T04:42:47;5.80;;;4.13;;
10009;SDS011;5044;48.652;9.250;2023-06-22T04:45:17;7.93;;;5.18;;
10009;SDS011;5044;48.652;9.250;2023-06-22T04:47:44;7.55;;;5.32;;
10009;SDS011;5044;48.652;9.250;2023-06-22T04:50:11;6.25;;;4.20;;
10009;SDS011;5044;48.652;9.250;2023-06-22T04:52:38;8.52;;;5.50;;
10009;SDS011;5044;48.652;9.250;2023-06-22T04:55:07;10.30;;;4.82;;
10009;SDS011;5044;48.652;9.250;2023-06-22T04:57:34;5.35;;;4.22;;
10009;SDS011;5044;48.652;9.250;2023-06-22T05:00:04;7.90;;;4.72;;
10009;SDS011;5044;48.652;9.250;2023-06-22T05:02:42;9.73;;;4.72;;
10009;SDS011;5044;48.652;9.250;2023-06-22T05:05:10;11.55;;;5.32;;
10009;SDS011;5044;48.652;9.250;2023-06-22T05:07:38;9.98;;;4.25;;
10009;SDS011;5044;48.652;9.250;2023-06-22T05:10:09;5.10;;;3.92;;
10009;SDS011;5044;48.652;9.250;2023-06-22T05:12:37;9.52;;;4.80;;
10009;SDS011;5044;48.652;9.250;2023-06-22T05:15:05;6.97;;;4.47;;
10009;SDS011;5044;48.652;9.250;2023-06-22T05:17:32;9.35;;;4.20;;
10009;SDS011;5044;48.652;9.250;2023-06-22T05:19:59;8.75;;;4.10;;
10009;SDS011;5044;48.652;9.250;2023-06-22T05:22:26;7.30;;;4.28;;
10009;SDS011;5044;48.652;9.250;2023-06-22T05:24:53;6.55;;;4.10;;
10009;SDS011;5044;48.652;9.250;2023-06-22T05:27:21;9.20;;;4.82;;
10009;SDS011;5044;48.652;9.250;2023-06-22T05:29:48;8.70;;;4.82;;
10009;SDS011;5044;48.652;9.250;2023-06-22T05:32:15;10.70;;;5.07;;
10009;SDS011;5044;48.652;9.250;2023-06-22T05:34:41;7.43;;;4.20;;
10009;SDS011;5044;48.652;9.250;2023-06-22T05:37:08;7.97;;;4.60;;
10009;SDS011;5044;48.652;9.250;2023-06-22T05:39:35;6.95;;;4.32;;
10009;SDS011;5044;48.652;9.250;2023-06-22T05:42:04;6.65;;;3.72;;
10009;SDS011;5044;48.652;9.250;2023-06-22T05:44:33;7.75;;;4.28;;
10009;SDS011;5044;48.652;9.250;2023-06-22T05:47:00;7.55;;;4.70;;
10009;SDS011;5044;48.652;9.250;2023-06-22T05:49:27;7.05;;;5.28;;
10009;SDS011;5044;48.652;9.250;2023-06-22T05:51:57;5.25;;;3.85;;
10009;SDS011;5044;48.652;9.250;2023-06-22T05:54:24;6.03;;;3.75;;
10009;SDS011;5044;48.652;9.250;2023-06-22T05:56:51;11.02;;;4.85;;
10009;SDS011;5044;48.652;9.250;2023-06-22T05:59:18;6.93;;;4.30;;
10009;SDS011;5044;48.652;9.250;2023-06-22T06:01:46;8.05;;;4.10;;
10009;SDS011;5044;48.652;9.250;2023-06-22T06:04:15;5.40;;;3.83;;
10009;SDS011;5044;48.652;9.250;2023-06-22T06:06:42;8.85;;;4.47;;
10009;SDS011;5044;48.652;9.250;2023-06-22T06:09:09;6.32;;;4.03;;
10009;SDS011;5044;48.652;9.250;2023-06-22T06:11:36;7.82;;;4.20;;
10009;SDS011;5044;48.652;9.250;2023-06-22T06:14:03;9.80;;;5.07;;
10009;SDS011;5044;48.652;9.250;2023-06-22T06:16:30;7.25;;;4.07;;
10009;SDS011;5044;48.652;9.250;2023-06-22T06:18:58;4.60;;;3.20;;
10009;SDS011;5044;48.652;9.250;2023-06-22T06:21:25;10.65;;;4.15;;
10009;SDS011;5044;48.652;9.250;2023-06-22T06:23:51;6.70;;;3.63;;
10009;SDS011;5044;48.652;9.250;2023-06-22T06:26:19;9.00;;;3.70;;
10009;SDS011;5044;48.652;9.250;2023-06-22T06:28:58;6.68;;;3.33;;
10009;SDS011;5044;48.652;9.250;2023-06-22T06:31:27;6.63;;;4.10;;
10009;SDS011;5044;48.652;9.250;2023-06-22T06:33:54;6.75;;;3.75;;
10009;SDS011;5044;48.652;9.250;2023-06-22T06:36:22;5.40;;;3.42;;
10009;SDS011;5044;48.652;9.250;2023-06-22T06:38:49;4.32;;;3.33;;
10009;SDS011;5044;48.652;9.250;2023-06-22T06:41:16;9.57;;;3.88;;
10009;SDS011;5044;48.652;9.250;2023-06-22T06:43:43;4.75;;;3.15;;
10009;SDS011;5044;48.652;9.250;2023-06-22T06:46:09;9.15;;;3.30;;
10009;SDS011;5044;48.652;9.250;2023-06-22T06:48:36;6.75;;;3.55;;
10009;SDS011;5044;48.652;9.250;2023-06-22T06:51:04;6.63;;;2.90;;
10009;SDS011;5044;48.652;9.250;2023-06-22T06:53:35;6.70;;;3.10;;
10009;SDS011;5044;48.652;9.250;2023-06-22T06:56:02;10.00;;;3.13;;
10009;SDS011;5044;48.652;9.250;2023-06-22T06:58:30;5.13;;;3.60;;
10009;SDS011;5044;48.652;9.250;2023-06-22T07:00:57;7.50;;;3.60;;
10009;SDS011;5044;48.652;9.250;2023-06-22T07:03:23;8.05;;;3.17;;
10009;SDS011;5044;48.652;9.250;2023-06-22T07:05:50;7.45;;;4.20;;
10009;SDS011;5044;48.652;9.250;2023-06-22T07:08:17;8.32;;;3.40;;
10009;SDS011;5044;48.652;9.250;2023-06-22T07:10:46;7.18;;;3.17;;
10009;SDS011;5044;48.652;9.250;2023-06-22T07:13:13;13.27;;;4.03;;
10009;SDS011;5044;48.652;9.250;2023-06-22T07:15:40;5.20;;;3.38;;
10009;SDS011;5044;48.652;9.250;2023-06-22T07:18:07;9.27;;;3.75;;
10009;SDS011;5044;48.652;9.250;2023-06-22T07:20:34;9.48;;;3.72;;
10009;SDS011;5044;48.652;9.250;2023-06-22T07:23:00;6.38;;;3.00;;
10009;SDS011;5044;48.652;9.250;2023-06-22T07:25:28;5.75;;;4.03;;
10009;SDS011;5044;48.652;9.250;2023-06-22T07:28:00;4.82;;;2.92;;
10009;SDS011;5044;48.652;9.250;2023-06-22T07:30:27;9.68;;;3.47;;
10009;SDS011;5044;48.652;9.250;2023-06-22T07:32:54;4.10;;;2.97;;
10009;SDS011;5044;48.652;9.250;2023-06-22T07:35:28;4.68;;;3.72;;
10009;SDS011;5044;48.652;9.250;2023-06-22T07:37:55;6.30;;;2.70;;
10009;SDS011;5044;48.652;9.250;2023-06-22T07:40:22;5.95;;;3.45;;
10009;SDS011;5044;48.652;9.250;2023-06-22T07:42:49;4.40;;;3.03;;
10009;SDS011;5044;48.652;9.250;2023-06-22T07:45:18;6.47;;;3.08;;
10009;SDS011;5044;48.652;9.250;2023-06-22T07:47:45;9.60;;;4.18;;
10009;SDS011;5044;48.652;9.250;2023-06-22T07:50:11;4.78;;;2.80;;
10009;SDS011;5044;48.652;9.250;2023-06-22T07:52:38;6.07;;;4.45;;
10009;SDS011;5044;48.652;9.250;2023-06-22T07:55:05;5.20;;;3.05;;
10009;SDS011;5044;48.652;9.250;2023-06-22T07:57:32;6.47;;;3.05;;
10009;SDS011;5044;48.652;9.250;2023-06-22T07:59:59;11.98;;;4.13;;
10009;SDS011;5044;48.652;9.250;2023-06-22T08:02:30;6.80;;;3.40;;
10009;SDS011;5044;48.652;9.250;2023-06-22T08:04:57;8.40;;;3.00;;
10009;SDS011;5044;48.652;9.250;2023-06-22T08:07:23;9.85;;;3.63;;
10009;SDS011;5044;48.652;9.250;2023-06-22T08:09:50;6.40;;;4.07;;
10009;SDS011;5044;48.652;9.250;2023-06-22T08:12:17;5.35;;;2.85;;
10009;SDS011;5044;48.652;9.250;2023-06-22T08:14:45;4.35;;;2.83;;
10009;SDS011;5044;48.652;9.250;2023-06-22T08:17:12;10.18;;;3.50;;
10009;SDS011;5044;48.652;9.250;2023-06-22T08:19:40;8.65;;;4.38;;
10009;SDS011;5044;48.652;9.250;2023-06-22T08:22:07;6.38;;;3.30;;
10009;SDS011;5044;48.652;9.250;2023-06-22T08:24:34;7.53;;;3.80;;
10009;SDS011;5044;48.652;9.250;2023-06-22T08:27:01;7.70;;;3.45;;
10009;SDS011;5044;48.652;9.250;2023-06-22T08:29:27;6.90;;;3.33;;
10009;SDS011;5044;48.652;9.250;2023-06-22T08:31:54;12.20;;;4.22;;
10009;SDS011;5044;48.652;9.250;2023-06-22T08:34:21;8.52;;;3.80;;
10009;SDS011;5044;48.652;9.250;2023-06-22T08:36:49;9.18;;;3.95;;
10009;SDS011;5044;48.652;9.250;2023-06-22T08:39:17;7.70;;;4.43;;
10009;SDS011;5044;48.652;9.250;2023-06-22T08:41:47;9.27;;;4.07;;
10009;SDS011;5044;48.652;9.250;2023-06-22T08:44:16;12.38;;;4.65;;
10009;SDS011;5044;48.652;9.250;2023-06-22T08:46:44;6.00;;;3.77;;
10009;SDS011;5044;48.652;9.250;2023-06-22T08:49:11;10.10;;;3.38;;
10009;SDS011;5044;48.652;9.250;2023-06-22T08:51:38;10.85;;;3.75;;
10009;SDS011;5044;48.652;9.250;2023-06-22T08:54:06;8.65;;;4.25;;
10009;SDS011;5044;48.652;9.250;2023-06-22T08:56:33;9.18;;;3.75;;
10009;SDS011;5044;48.652;9.250;2023-06-22T08:59:00;8.68;;;3.88;;
10009;SDS011;5044;48.652;9.250;2023-06-22T09:01:27;9.38;;;4.53;;
10009;SDS011;5044;48.652;9.250;2023-06-22T09:03:53;8.02;;;3.88;;
10009;SDS011;5044;48.652;9.250;2023-06-22T09:06:22;7.35;;;4.30;;
10009;SDS011;5044;48.652;9.250;2023-06-22T09:08:49;8.95;;;3.65;;
10009;SDS011;5044;48.652;9.250;2023-06-22T09:11:17;13.00;;;4.90;;
10009;SDS011;5044;48.652;9.250;2023-06-22T09:13:44;10.32;;;4.50;;
10009;SDS011;5044;48.652;9.250;2023-06-22T09:16:11;9.95;;;3.88;;
10009;SDS011;5044;48.652;9.250;2023-06-22T09:18:38;4.90;;;2.95;;
10009;SDS011;5044;48.652;9.250;2023-06-22T09:21:05;9.85;;;4.25;;
10009;SDS011;5044;48.652;9.250;2023-06-22T09:23:32;5.75;;;3.40;;
10009;SDS011;5044;48.652;9.250;2023-06-22T09:25:59;6.47;;;3.35;;
10009;SDS011;5044;48.652;9.250;2023-06-22T09:28:27;10.95;;;3.67;;
10009;SDS011;5044;48.652;9.250;2023-06-22T09:30:54;7.00;;;3.55;;
10009;SDS011;5044;48.652;9.250;2023-06-22T09:33:23;7.28;;;3.72;;
10009;SDS011;5044;48.652;9.250;2023-06-22T09:35:50;9.38;;;4.30;;
10009;SDS011;5044;48.652;9.250;2023-06-22T09:38:17;6.75;;;3.88;;
10009;SDS011;5044;48.652;9.250;2023-06-22T09:40:44;11.07;;;3.72;;
10009;SDS011;5044;48.652;9.250;2023-06-22T09:43:11;7.35;;;3.78;;
10009;SDS011;5044;48.652;9.250;2023-06-22T09:45:39;10.02;;;3.58;;
10009;SDS011;5044;48.652;9.250;2023-06-22T09:48:06;9.52;;;3.75;;
10009;SDS011;5044;48.652;9.250;2023-06-22T09:50:34;11.15;;;4.38;;
10009;SDS011;5044;48.652;9.250;2023-06-22T09:53:01;8.35;;;4.25;;
10009;SDS011;5044;48.652;9.250;2023-06-22T09:55:28;10.23;;;4.25;;
10009;SDS011;5044;48.652;9.250;2023-06-22T09:57:55;11.15;;;4.88;;
10009;SDS011;5044;48.652;9.250;2023-06-22T10:00:22;8.57;;;3.90;;
10009;SDS011;5044;48.652;9.250;2023-06-22T10:02:50;9.27;;;3.90;;
10009;SDS011;5044;48.652;9.250;2023-06-22T10:05:17;7.90;;;3.97;;
10009;SDS011;5044;48.652;9.250;2023-06-22T10:07:43;6.53;;;3.70;;
10009;SDS011;5044;48.652;9.250;2023-06-22T10:10:11;5.35;;;3.97;;
10009;SDS011;5044;48.652;9.250;2023-06-22T10:12:40;8.48;;;3.75;;
10009;SDS011;5044;48.652;9.250;2023-06-22T10:15:09;7.25;;;3.90;;
10009;SDS011;5044;48.652;9.250;2023-06-22T10:17:36;6.05;;;3.55;;
10009;SDS011;5044;48.652;9.250;2023-06-22T10:20:05;7.30;;;4.25;;
10009;SDS011;5044;48.652;9.250;2023-06-22T10:22:40;9.57;;;4.50;;
10009;SDS011;5044;48.652;9.250;2023-06-22T10:25:08;8.07;;;4.25;;
10009;SDS011;5044;48.652;9.250;2023-06-22T10:27:37;12.13;;;3.78;;
10009;SDS011;5044;48.652;9.250;2023-06-22T10:30:06;10.38;;;4.22;;
10009;SDS011;5044;48.652;9.250;2023-06-22T10:32:33;6.82;;;4.38;;
10009;SDS011;5044;48.652;9.250;2023-06-22T10:35:00;8.90;;;4.20;;
10009;SDS011;5044;48.652;9.250;2023-06-22T10:37:28;9.23;;;3.63;;
10009;SDS011;5044;48.652;9.250;2023-06-22T10:39:55;7.72;;;3.40;;
10009;SDS011;5044;48.652;9.250;2023-06-22T10:42:22;7.88;;;3.70;;
10009;SDS011;5044;48.652;9.250;2023-06-22T10:44:49;9.00;;;4.30;;
10009;SDS011;5044;48.652;9.250;2023-06-22T10:47:15;10.48;;;4.20;;
10009;SDS011;5044;48.652;9.250;2023-06-22T10:49:42;8.25;;;3.70;;
10009;SDS011;5044;48.652;9.250;2023-06-22T10:52:09;8.80;;;3.88;;
10009;SDS011;5044;48.652;9.250;2023-06-22T10:54:37;15.30;;;4.70;;
10009;SDS011;5044;48.652;9.250;2023-06-22T10:57:04;13.80;;;5.38;;
10009;SDS011;5044;48.652;9.250;2023-06-22T10:59:32;6.70;;;3.97;;
10009;SDS011;5044;48.652;9.250;2023-06-22T11:01:58;7.78;;;4.05;;
10009;SDS011;5044;48.652;9.250;2023-06-22T11:04:25;7.35;;;3.75;;
10009;SDS011;5044;48.652;9.250;2023-06-22T11:06:52;6.03;;;3.47;;
10009;SDS011;5044;48.652;9.250;2023-06-22T11:09:19;10.95;;;4.88;;
10009;SDS011;5044;48.652;9.250;2023-06-22T11:11:47;11.95;;;4.05;;
10009;SDS011;5044;48.652;9.250;2023-06-22T11:14:15;7.63;;;3.50;;
10009;SDS011;5044;48.652;9.250;2023-06-22T11:16:42;10.57;;;4.30;;
10009;SDS011;5044;48.652;9.250;2023-06-22T11:19:09;10.57;;;3.92;;
10009;SDS011;5044;48.652;9.250;2023-06-22T11:21:36;10.73;;;3.70;;
10009;SDS011;5044;48.652;9.250;2023-06-22T11:24:03;12.90;;;4.30;;
10009;SDS011;5044;48.652;9.250;2023-06-22T11:26:31;10.43;;;4.00;;
10009;SDS011;5044;48.652;9.250;2023-06-22T11:28:59;6.95;;;3.78;;
10009;SDS011;5044;48.652;9.250;2023-06-22T11:31:30;7.38;;;3.35;;
10009;SDS011;5044;48.652;9.250;2023-06-22T11:33:56;9.05;;;4.20;;
10009;SDS011;5044;48.652;9.250;2023-06-22T11:36:23;8.68;;;3.53;;
10009;SDS011;5044;48.652;9.250;2023-06-22T11:38:51;7.40;;;3.90;;
10009;SDS011;5044;48.652;9.250;2023-06-22T11:41:18;9.15;;;3.63;;
10009;SDS011;5044;48.652;9.250;2023-06-22T11:43:44;10.43;;;3.65;;
10009;SDS011;5044;48.652;9.250;2023-06-22T11:46:13;8.07;;;3.75;;
10009;SDS011;5044;48.652;9.250;2023-06-22T11:48:39;11.30;;;4.85;;
10009;SDS011;5044;48.652;9.250;2023-06-22T11:51:06;10.45;;;4.10;;
10009;SDS011;5044;48.652;9.250;2023-06-22T11:53:34;10.15;;;3.50;;
10009;SDS011;5044;48.652;9.250;2023-06-22T11:56:01;11.85;;;3.75;;
10009;SDS011;5044;48.652;9.250;2023-06-22T11:58:29;7.65;;;3.30;;
10009;SDS011;5044;48.652;9.250;2023-06-22T12:00:59;6.18;;;3.33;;
10009;SDS011;5044;48.652;9.250;2023-06-22T12:03:29;9.68;;;3.33;;
10009;SDS011;5044;48.652;9.250;2023-06-22T12:05:59;10.82;;;4.50;;
10009;SDS011;5044;48.652;9.250;2023-06-22T12:08:26;7.38;;;4.47;;
10009;SDS011;5044;48.652;9.250;2023-06-22T12:10:53;12.32;;;4.07;;
10009;SDS011;5044;48.652;9.250;2023-06-22T12:13:20;5.72;;;3.20;;
10009;SDS011;5044;48.652;9.250;2023-06-22T12:15:50;6.60;;;3.65;;
10009;SDS011;5044;48.652;9.250;2023-06-22T12:18:17;8.18;;;3.75;;
10009;SDS011;5044;48.652;9.250;2023-06-22T12:20:47;7.50;;;3.95;;
10009;SDS011;5044;48.652;9.250;2023-06-22T12:23:14;10.38;;;4.13;;
10009;SDS011;5044;48.652;9.250;2023-06-22T12:25:41;12.70;;;4.40;;
10009;SDS011;5044;48.652;9.250;2023-06-22T12:28:08;6.28;;;3.30;;
10009;SDS011;5044;48.652;9.250;2023-06-22T12:30:34;8.75;;;3.40;;
10009;SDS011;5044;48.652;9.250;2023-06-22T12:33:04;10.88;;;4.15;;
10009;SDS011;5044;48.652;9.250;2023-06-22T12:35:38;7.53;;;3.85;;
10009;SDS011;5044;48.652;9.250;2023-06-22T12:38:09;14.82;;;4.70;;
10009;SDS011;5044;48.652;9.250;2023-06-22T12:40:41;12.75;;;4.57;;
10009;SDS011;5044;48.652;9.250;2023-06-22T12:43:09;10.13;;;4.50;;
10009;SDS011;5044;48.652;9.250;2023-06-22T12:45:36;11.77;;;4.05;;
10009;SDS011;5044;48.652;9.250;2023-06-22T12:48:03;12.65;;;4.22;;
10009;SDS011;5044;48.652;9.250;2023-06-22T12:50:30;8.63;;;3.30;;
10009;SDS011;5044;48.652;9.250;2023-06-22T12:52:56;14.23;;;4.50;;
10009;SDS011;5044;48.652;9.250;2023-06-22T12:55:30;11.45;;;3.92;;
10009;SDS011;5044;48.652;9.250;2023-06-22T12:57:56;12.05;;;4.65;;
10009;SDS011;5044;48.652;9.250;2023-06-22T13:00:23;9.68;;;4.00;;
10009;SDS011;5044;48.652;9.250;2023-06-22T13:02:50;12.13;;;4.30;;
10009;SDS011;5044;48.652;9.250;2023-06-22T13:05:18;16.63;;;4.50;;
10009;SDS011;5044;48.652;9.250;2023-06-22T13:07:45;11.45;;;3.78;;
10009;SDS011;5044;48.652;9.250;2023-06-22T13:10:12;13.63;;;3.78;;
10009;SDS011;5044;48.652;9.250;2023-06-22T13:12:40;12.30;;;4.85;;
10009;SDS011;5044;48.652;9.250;2023-06-22T13:15:07;8.20;;;3.95;;
10009;SDS011;5044;48.652;9.250;2023-06-22T13:17:34;12.38;;;3.80;;
10009;SDS011;5044;48.652;9.250;2023-06-22T13:20:01;9.40;;;4.00;;
10009;SDS011;5044;48.652;9.250;2023-06-22T13:22:29;16.58;;;5.03;;
10009;SDS011;5044;48.652;9.250;2023-06-22T13:24:57;7.57;;;3.42;;
10009;SDS011;5044;48.652;9.250;2023-06-22T13:27:25;9.32;;;3.88;;
10009;SDS011;5044;48.652;9.250;2023-06-22T13:29:53;13.85;;;4.13;;
10009;SDS011;5044;48.652;9.250;2023-06-22T13:32:23;11.70;;;4.03;;
10009;SDS011;5044;48.652;9.250;2023-06-22T13:34:50;11.68;;;3.60;;
10009;SDS011;5044;48.652;9.250;2023-06-22T13:37:18;12.55;;;3.65;;
10009;SDS011;5044;48.652;9.250;2023-06-22T13:39:45;11.13;;;3.95;;
10009;SDS011;5044;48.652;9.250;2023-06-22T13:42:12;12.30;;;3.72;;
10009;SDS011;5044;48.652;9.250;2023-06-22T13:44:39;15.27;;;4.78;;
10009;SDS011;5044;48.652;9.250;2023-06-22T13:47:07;5.72;;;3.47;;
10009;SDS011;5044;48.652;9.250;2023-06-22T13:49:34;8.80;;;3.70;;
10009;SDS011;5044;48.652;9.250;2023-06-22T13:52:01;9.30;;;3.50;;
10009;SDS011;5044;48.652;9.250;2023-06-22T13:54:28;12.18;;;3.67;;
10009;SDS011;5044;48.652;9.250;2023-06-22T13:56:55;13.55;;;4.43;;
10009;SDS011;5044;48.652;9.250;2023-06-22T13:59:24;15.25;;;4.25;;
10009;SDS011;5044;48.652;9.250;2023-06-22T14:01:52;11.23;;;4.28;;
10009;SDS011;5044;48.652;9.250;2023-06-22T14:04:21;9.82;;;4.05;;
10009;SDS011;5044;48.652;9.250;2023-06-22T14:06:49;11.43;;;3.85;;
10009;SDS011;5044;48.652;9.250;2023-06-22T14:09:15;10.27;;;4.55;;
10009;SDS011;5044;48.652;9.250;2023-06-22T14:11:42;12.00;;;4.05;;
10009;SDS011;5044;48.652;9.250;2023-06-22T14:14:09;8.85;;;3.58;;
10009;SDS011;5044;48.652;9.250;2023-06-22T14:16:36;11.38;;;3.97;;
10009;SDS011;5044;48.652;9.250;2023-06-22T14:19:02;10.65;;;3.85;;
10009;SDS011;5044;48.652;9.250;2023-06-22T14:21:31;8.13;;;3.47;;
10009;SDS011;5044;48.652;9.250;2023-06-22T14:23:58;13.80;;;3.85;;
10009;SDS011;5044;48.652;9.250;2023-06-22T14:26:28;17.45;;;4.05;;
10009;SDS011;5044;48.652;9.250;2023-06-22T14:28:56;9.82;;;4.25;;
10009;SDS011;5044;48.652;9.250;2023-06-22T14:31:23;9.68;;;4.25;;
10009;SDS011;5044;48.652;9.250;2023-06-22T14:33:50;13.32;;;4.03;;
10009;SDS011;5044;48.652;9.250;2023-06-22T14:36:16;10.38;;;4.90;;
10009;SDS011;5044;48.652;9.250;2023-06-22T14:38:49;9.93;;;3.45;;
10009;SDS011;5044;48.652;9.250;2023-06-22T14:41:25;9.57;;;3.80;;
10009;SDS011;5044;48.652;9.250;2023-06-22T14:43:51;9.48;;;3.83;;
10009;SDS011;5044;48.652;9.250;2023-06-22T14:46:18;10.82;;;4.32;;
10009;SDS011;5044;48.652;9.250;2023-06-22T14:48:45;10.35;;;3.90;;
10009;SDS011;5044;48.652;9.250;2023-06-22T14:51:12;12.05;;;3.78;;
10009;SDS011;5044;48.652;9.250;2023-06-22T14:53:40;9.63;;;3.85;;
10009;SDS011;5044;48.652;9.250;2023-06-22T14:56:09;7.18;;;3.83;;
10009;SDS011;5044;48.652;9.250;2023-06-22T14:58:36;8.70;;;3.97;;
10009;SDS011;5044;48.652;9.250;2023-06-22T15:01:03;8.55;;;3.40;;
10009;SDS011;5044;48.652;9.250;2023-06-22T15:03:33;9.75;;;4.45;;